sensor_id;sensor_type;location;lat;lon;timestamp;temperature;humidity
17437;DHT22;8836;52.272;5.134;2022-07-29T00:00:08;22.40;95.20
17437;DHT22;8836;52.272;5.134;2022-07-29T00:02:36;22.40;95.20
17437;DHT22;8836;52.272;5.134;2022-07-29T00:05:04;22.40;95.20
17437;DHT22;8836;52.272;5.134;2022-07-29T00:07:32;22.30;95.20
17437;DHT22;8836;52.272;5.134;2022-07-29T00:09:59;22.30;95.20
17437;DHT22;8836;52.272;5.134;2022-07-29T00:12:27;22.30;95.30
17437;DHT22;8836;52.272;5.134;2022-07-29T00:14:54;22.40;95.30
17437;DHT22;8836;52.272;5.134;2022-07-29T00:17:23;22.40;95.20
17437;DHT22;8836;52.272;5.134;2022-07-29T00:19:50;22.40;95.10
17437;DHT22;8836;52.272;5.134;2022-07-29T00:22:17;22.40;95.20
17437;DHT22;8836;52.272;5.134;2022-07-29T00:24:44;22.40;95.20
17437;DHT22;8836;52.272;5.134;2022-07-29T00:27:11;22.50;95.20
17437;DHT22;8836;52.272;5.134;2022-07-29T00:29:39;22.50;95.10
17437;DHT22;8836;52.272;5.134;2022-07-29T00:32:06;22.60;95.10
17437;DHT22;8836;52.272;5.134;2022-07-29T00:34:33;22.70;95.10
17437;DHT22;8836;52.272;5.134;2022-07-29T00:37:18;22.60;95.10
17437;DHT22;8836;52.272;5.134;2022-07-29T00:39:45;22.50;95.10
17437;DHT22;8836;52.272;5.134;2022-07-29T00:42:12;22.30;95.20
17437;DHT22;8836;52.272;5.134;2022-07-29T00:44:41;22.30;95.20
17437;DHT22;8836;52.272;5.134;2022-07-29T00:47:10;22.40;95.20
17437;DHT22;8836;52.272;5.134;2022-07-29T00:49:38;22.50;95.10
17437;DHT22;8836;52.272;5.134;2022-07-29T00:52:07;22.40;95.10
17437;DHT22;8836;52.272;5.134;2022-07-29T00:54:35;22.50;95.10
17437;DHT22;8836;52.272;5.134;2022-07-29T00:57:06;22.60;95.00
17437;DHT22;8836;52.272;5.134;2022-07-29T00:59:34;22.60;94.90
17437;DHT22;8836;52.272;5.134;2022-07-29T01:02:03;22.60;95.00
17437;DHT22;8836;52.272;5.134;2022-07-29T01:04:31;22.70;94.90
17437;DHT22;8836;52.272;5.134;2022-07-29T01:06:58;23.80;95.40
17437;DHT22;8836;52.272;5.134;2022-07-29T01:09:28;22.70;94.80
17437;DHT22;8836;52.272;5.134;2022-07-29T01:11:57;22.70;95.20
17437;DHT22;8836;52.272;5.134;2022-07-29T01:14:25;22.80;94.90
17437;DHT22;8836;52.272;5.134;2022-07-29T01:16:59;22.90;94.80
17437;DHT22;8836;52.272;5.134;2022-07-29T01:19:47;22.90;94.70
17437;DHT22;8836;52.272;5.134;2022-07-29T01:22:27;22.80;94.70
17437;DHT22;8836;52.272;5.134;2022-07-29T01:25:17;22.80;94.80
17437;DHT22;8836;52.272;5.134;2022-07-29T01:28:16;22.50;94.80
17437;DHT22;8836;52.272;5.134;2022-07-29T01:30:53;22.40;94.90
17437;DHT22;8836;52.272;5.134;2022-07-29T01:33:22;22.30;95.00
17437;DHT22;8836;52.272;5.134;2022-07-29T01:36:12;22.40;95.10
17437;DHT22;8836;52.272;5.134;2022-07-29T01:38:42;22.50;95.00
17437;DHT22;8836;52.272;5.134;2022-07-29T01:41:15;22.60;95.00
17437;DHT22;8836;52.272;5.134;2022-07-29T01:43:50;22.70;94.90
17437;DHT22;8836;52.272;5.134;2022-07-29T01:46:29;22.70;95.00
17437;DHT22;8836;52.272;5.134;2022-07-29T01:49:03;22.70;94.80
17437;DHT22;8836;52.272;5.134;2022-07-29T01:51:40;22.70;94.90
17437;DHT22;8836;52.272;5.134;2022-07-29T01:54:16;22.70;94.80
17437;DHT22;8836;52.272;5.134;2022-07-29T01:56:49;22.70;94.80
17437;DHT22;8836;52.272;5.134;2022-07-29T01:59:20;22.80;94.80
17437;DHT22;8836;52.272;5.134;2022-07-29T02:01:53;22.90;94.70
17437;DHT22;8836;52.272;5.134;2022-07-29T02:04:21;23.10;94.80
17437;DHT22;8836;52.272;5.134;2022-07-29T02:06:52;23.10;94.70
17437;DHT22;8836;52.272;5.134;2022-07-29T02:09:24;23.10;94.60
17437;DHT22;8836;52.272;5.134;2022-07-29T02:11:54;23.20;94.70
17437;DHT22;8836;52.272;5.134;2022-07-29T02:14:23;23.30;94.60
17437;DHT22;8836;52.272;5.134;2022-07-29T02:16:54;23.30;94.60
17437;DHT22;8836;52.272;5.134;2022-07-29T02:19:25;23.40;94.60
17437;DHT22;8836;52.272;5.134;2022-07-29T02:21:55;23.40;94.50
17437;DHT22;8836;52.272;5.134;2022-07-29T02:24:24;23.50;94.50
17437;DHT22;8836;52.272;5.134;2022-07-29T02:26:54;23.50;94.40
17437;DHT22;8836;52.272;5.134;2022-07-29T02:29:25;23.50;94.40
17437;DHT22;8836;52.272;5.134;2022-07-29T02:31:57;23.50;94.30
17437;DHT22;8836;52.272;5.134;2022-07-29T02:34:27;23.90;94.50
17437;DHT22;8836;52.272;5.134;2022-07-29T02:36:56;23.70;94.40
17437;DHT22;8836;52.272;5.134;2022-07-29T02:39:24;23.60;94.30
17437;DHT22;8836;52.272;5.134;2022-07-29T02:41:58;23.60;94.60
17437;DHT22;8836;52.272;5.134;2022-07-29T02:44:30;23.70;94.30
17437;DHT22;8836;52.272;5.134;2022-07-29T02:47:04;23.60;94.40
17437;DHT22;8836;52.272;5.134;2022-07-29T02:49:44;23.70;94.30
17437;DHT22;8836;52.272;5.134;2022-07-29T02:52:23;23.70;94.30
17437;DHT22;8836;52.272;5.134;2022-07-29T02:54:55;23.70;94.30
17437;DHT22;8836;52.272;5.134;2022-07-29T02:57:31;23.70;94.30
17437;DHT22;8836;52.272;5.134;2022-07-29T03:00:03;23.80;94.30
17437;DHT22;8836;52.272;5.134;2022-07-29T03:02:37;23.70;94.30
17437;DHT22;8836;52.272;5.134;2022-07-29T03:05:11;23.80;94.20
17437;DHT22;8836;52.272;5.134;2022-07-29T03:07:43;23.80;94.20
17437;DHT22;8836;52.272;5.134;2022-07-29T03:10:14;23.80;94.20
17437;DHT22;8836;52.272;5.134;2022-07-29T03:12:41;23.80;94.20
17437;DHT22;8836;52.272;5.134;2022-07-29T03:15:10;23.80;94.20
17437;DHT22;8836;52.272;5.134;2022-07-29T03:17:39;24.20;94.40
17437;DHT22;8836;52.272;5.134;2022-07-29T03:20:08;23.80;94.20
17437;DHT22;8836;52.272;5.134;2022-07-29T03:22:39;23.80;94.20
17437;DHT22;8836;52.272;5.134;2022-07-29T03:25:09;23.80;94.20
17437;DHT22;8836;52.272;5.134;2022-07-29T03:27:36;23.80;94.20
17437;DHT22;8836;52.272;5.134;2022-07-29T03:30:04;23.80;94.20
17437;DHT22;8836;52.272;5.134;2022-07-29T03:32:32;23.90;94.20
17437;DHT22;8836;52.272;5.134;2022-07-29T03:35:01;23.90;94.10
17437;DHT22;8836;52.272;5.134;2022-07-29T03:37:28;23.90;94.10
17437;DHT22;8836;52.272;5.134;2022-07-29T03:39:57;23.90;94.00
17437;DHT22;8836;52.272;5.134;2022-07-29T03:42:26;23.90;94.00
17437;DHT22;8836;52.272;5.134;2022-07-29T03:44:59;23.80;94.00
17437;DHT22;8836;52.272;5.134;2022-07-29T03:47:30;23.80;94.00
17437;DHT22;8836;52.272;5.134;2022-07-29T03:50:05;23.70;94.00
17437;DHT22;8836;52.272;5.134;2022-07-29T03:52:33;23.70;94.10
17437;DHT22;8836;52.272;5.134;2022-07-29T03:55:02;23.60;94.10
17437;DHT22;8836;52.272;5.134;2022-07-29T03:57:30;23.50;94.10
17437;DHT22;8836;52.272;5.134;2022-07-29T04:00:00;23.50;94.40
17437;DHT22;8836;52.272;5.134;2022-07-29T04:02:30;23.30;94.20
17437;DHT22;8836;52.272;5.134;2022-07-29T04:04:58;23.10;94.20
17437;DHT22;8836;52.272;5.134;2022-07-29T04:07:27;23.10;94.20
17437;DHT22;8836;52.272;5.134;2022-07-29T04:09:55;23.10;94.30
17437;DHT22;8836;52.272;5.134;2022-07-29T04:12:22;23.10;94.30
17437;DHT22;8836;52.272;5.134;2022-07-29T04:14:49;23.10;94.30
17437;DHT22;8836;52.272;5.134;2022-07-29T04:17:16;23.10;94.30
17437;DHT22;8836;52.272;5.134;2022-07-29T04:19:43;23.10;94.40
17437;DHT22;8836;52.272;5.134;2022-07-29T04:22:09;23.10;94.50
17437;DHT22;8836;52.272;5.134;2022-07-29T04:24:38;23.20;94.60
17437;DHT22;8836;52.272;5.134;2022-07-29T04:27:05;23.20;94.60
17437;DHT22;8836;52.272;5.134;2022-07-29T04:29:31;23.20;94.60
17437;DHT22;8836;52.272;5.134;2022-07-29T04:31:58;23.30;94.60
17437;DHT22;8836;52.272;5.134;2022-07-29T04:34:25;23.30;94.50
17437;DHT22;8836;52.272;5.134;2022-07-29T04:36:52;23.20;94.50
17437;DHT22;8836;52.272;5.134;2022-07-29T04:39:19;23.30;94.50
17437;DHT22;8836;52.272;5.134;2022-07-29T04:41:47;23.30;94.50
17437;DHT22;8836;52.272;5.134;2022-07-29T04:44:15;23.30;94.40
17437;DHT22;8836;52.272;5.134;2022-07-29T04:46:42;23.20;94.40
17437;DHT22;8836;52.272;5.134;2022-07-29T04:49:10;23.10;94.50
17437;DHT22;8836;52.272;5.134;2022-07-29T04:51:36;23.00;94.60
17437;DHT22;8836;52.272;5.134;2022-07-29T04:54:03;22.70;94.60
17437;DHT22;8836;52.272;5.134;2022-07-29T04:56:31;22.50;94.70
17437;DHT22;8836;52.272;5.134;2022-07-29T04:59:00;22.50;94.80
17437;DHT22;8836;52.272;5.134;2022-07-29T05:01:27;22.60;94.80
17437;DHT22;8836;52.272;5.134;2022-07-29T05:03:54;22.70;94.70
17437;DHT22;8836;52.272;5.134;2022-07-29T05:06:21;22.80;95.00
17437;DHT22;8836;52.272;5.134;2022-07-29T05:08:47;22.90;94.60
17437;DHT22;8836;52.272;5.134;2022-07-29T05:11:14;22.60;94.50
17437;DHT22;8836;52.272;5.134;2022-07-29T05:13:41;22.40;94.70
17437;DHT22;8836;52.272;5.134;2022-07-29T05:16:10;23.30;95.40
17437;DHT22;8836;52.272;5.134;2022-07-29T05:18:37;22.10;95.00
17437;DHT22;8836;52.272;5.134;2022-07-29T05:21:04;22.10;94.90
17437;DHT22;8836;52.272;5.134;2022-07-29T05:23:31;22.20;94.90
17437;DHT22;8836;52.272;5.134;2022-07-29T05:25:58;22.20;95.00
17437;DHT22;8836;52.272;5.134;2022-07-29T05:28:25;22.00;95.00
17437;DHT22;8836;52.272;5.134;2022-07-29T05:30:52;22.90;95.60
17437;DHT22;8836;52.272;5.134;2022-07-29T05:33:20;22.00;95.20
17437;DHT22;8836;52.272;5.134;2022-07-29T05:35:47;22.10;95.20
17437;DHT22;8836;52.272;5.134;2022-07-29T05:38:14;22.30;95.30
17437;DHT22;8836;52.272;5.134;2022-07-29T05:40:41;22.30;95.20
17437;DHT22;8836;52.272;5.134;2022-07-29T05:43:08;22.20;95.30
17437;DHT22;8836;52.272;5.134;2022-07-29T05:45:35;22.00;95.40
17437;DHT22;8836;52.272;5.134;2022-07-29T05:48:02;22.10;95.60
17437;DHT22;8836;52.272;5.134;2022-07-29T05:50:31;22.20;95.60
17437;DHT22;8836;52.272;5.134;2022-07-29T05:52:58;22.30;95.60
17437;DHT22;8836;52.272;5.134;2022-07-29T05:55:25;22.40;95.60
17437;DHT22;8836;52.272;5.134;2022-07-29T05:57:52;23.70;96.10
17437;DHT22;8836;52.272;5.134;2022-07-29T06:00:19;22.50;95.40
17437;DHT22;8836;52.272;5.134;2022-07-29T06:02:45;22.60;95.40
17437;DHT22;8836;52.272;5.134;2022-07-29T06:05:12;22.70;95.40
17437;DHT22;8836;52.272;5.134;2022-07-29T06:07:41;22.80;95.30
17437;DHT22;8836;52.272;5.134;2022-07-29T06:10:08;22.90;95.30
17437;DHT22;8836;52.272;5.134;2022-07-29T06:12:36;23.00;95.30
17437;DHT22;8836;52.272;5.134;2022-07-29T06:15:03;22.80;95.20
17437;DHT22;8836;52.272;5.134;2022-07-29T06:17:31;22.70;95.20
17437;DHT22;8836;52.272;5.134;2022-07-29T06:19:58;22.80;95.20
17437;DHT22;8836;52.272;5.134;2022-07-29T06:22:25;22.90;95.30
17437;DHT22;8836;52.272;5.134;2022-07-29T06:24:53;22.80;95.20
17437;DHT22;8836;52.272;5.134;2022-07-29T06:27:20;22.60;95.10
17437;DHT22;8836;52.272;5.134;2022-07-29T06:29:47;22.50;95.20
17437;DHT22;8836;52.272;5.134;2022-07-29T06:32:14;22.40;95.40
17437;DHT22;8836;52.272;5.134;2022-07-29T06:34:41;22.10;95.50
17437;DHT22;8836;52.272;5.134;2022-07-29T06:37:08;22.00;95.50
17437;DHT22;8836;52.272;5.134;2022-07-29T06:39:36;22.00;95.70
17437;DHT22;8836;52.272;5.134;2022-07-29T06:42:05;21.70;95.80
17437;DHT22;8836;52.272;5.134;2022-07-29T06:44:32;21.80;95.90
17437;DHT22;8836;52.272;5.134;2022-07-29T06:47:00;21.80;96.00
17437;DHT22;8836;52.272;5.134;2022-07-29T06:49:27;23.50;96.60
17437;DHT22;8836;52.272;5.134;2022-07-29T06:51:54;21.80;95.90
17437;DHT22;8836;52.272;5.134;2022-07-29T06:54:21;21.80;95.90
17437;DHT22;8836;52.272;5.134;2022-07-29T06:56:48;21.70;95.90
17437;DHT22;8836;52.272;5.134;2022-07-29T06:59:16;21.60;95.90
17437;DHT22;8836;52.272;5.134;2022-07-29T07:01:43;21.60;96.00
17437;DHT22;8836;52.272;5.134;2022-07-29T07:04:11;21.70;96.00
17437;DHT22;8836;52.272;5.134;2022-07-29T07:06:38;21.80;96.00
17437;DHT22;8836;52.272;5.134;2022-07-29T07:09:06;22.00;95.90
17437;DHT22;8836;52.272;5.134;2022-07-29T07:11:33;22.10;95.80
17437;DHT22;8836;52.272;5.134;2022-07-29T07:14:00;23.50;96.50
17437;DHT22;8836;52.272;5.134;2022-07-29T07:16:28;22.00;95.90
17437;DHT22;8836;52.272;5.134;2022-07-29T07:18:56;22.00;95.90
17437;DHT22;8836;52.272;5.134;2022-07-29T07:21:23;22.10;95.80
17437;DHT22;8836;52.272;5.134;2022-07-29T07:23:50;22.20;95.80
17437;DHT22;8836;52.272;5.134;2022-07-29T07:26:17;22.20;95.80
17437;DHT22;8836;52.272;5.134;2022-07-29T07:28:44;22.30;96.00
17437;DHT22;8836;52.272;5.134;2022-07-29T07:31:11;22.30;96.20
17437;DHT22;8836;52.272;5.134;2022-07-29T07:33:39;22.30;95.80
17437;DHT22;8836;52.272;5.134;2022-07-29T07:36:06;22.50;95.80
17437;DHT22;8836;52.272;5.134;2022-07-29T07:38:34;22.60;95.80
17437;DHT22;8836;52.272;5.134;2022-07-29T07:41:01;22.60;95.90
17437;DHT22;8836;52.272;5.134;2022-07-29T07:43:28;22.60;95.80
17437;DHT22;8836;52.272;5.134;2022-07-29T07:45:55;22.60;96.00
17437;DHT22;8836;52.272;5.134;2022-07-29T07:48:22;22.60;95.90
17437;DHT22;8836;52.272;5.134;2022-07-29T07:50:50;22.60;96.00
17437;DHT22;8836;52.272;5.134;2022-07-29T07:53:17;22.50;96.20
17437;DHT22;8836;52.272;5.134;2022-07-29T07:55:44;22.50;96.10
17437;DHT22;8836;52.272;5.134;2022-07-29T07:58:11;23.70;96.80
17437;DHT22;8836;52.272;5.134;2022-07-29T08:00:38;22.40;96.20
17437;DHT22;8836;52.272;5.134;2022-07-29T08:03:05;22.50;96.10
17437;DHT22;8836;52.272;5.134;2022-07-29T08:05:32;22.60;96.10
17437;DHT22;8836;52.272;5.134;2022-07-29T08:08:00;22.70;96.00
17437;DHT22;8836;52.272;5.134;2022-07-29T08:10:27;22.80;96.30
17437;DHT22;8836;52.272;5.134;2022-07-29T08:13:12;22.70;96.40
17437;DHT22;8836;52.272;5.134;2022-07-29T08:15:39;22.70;96.50
17437;DHT22;8836;52.272;5.134;2022-07-29T08:18:08;22.60;97.00
17437;DHT22;8836;52.272;5.134;2022-07-29T08:20:36;23.70;97.30
17437;DHT22;8836;52.272;5.134;2022-07-29T08:23:07;22.40;96.70
17437;DHT22;8836;52.272;5.134;2022-07-29T08:25:36;22.40;96.80
17437;DHT22;8836;52.272;5.134;2022-07-29T08:28:04;22.50;96.70
17437;DHT22;8836;52.272;5.134;2022-07-29T08:30:31;22.80;97.40
17437;DHT22;8836;52.272;5.134;2022-07-29T08:32:58;22.40;97.10
17437;DHT22;8836;52.272;5.134;2022-07-29T08:35:26;22.30;97.10
17437;DHT22;8836;52.272;5.134;2022-07-29T08:37:53;23.40;97.70
17437;DHT22;8836;52.272;5.134;2022-07-29T08:40:23;22.40;97.00
17437;DHT22;8836;52.272;5.134;2022-07-29T08:42:51;22.60;96.90
17437;DHT22;8836;52.272;5.134;2022-07-29T08:45:18;22.60;97.00
17437;DHT22;8836;52.272;5.134;2022-07-29T08:47:48;22.70;96.90
17437;DHT22;8836;52.272;5.134;2022-07-29T08:50:15;22.80;96.80
17437;DHT22;8836;52.272;5.134;2022-07-29T08:52:42;22.80;97.00
17437;DHT22;8836;52.272;5.134;2022-07-29T08:55:10;22.80;97.00
17437;DHT22;8836;52.272;5.134;2022-07-29T08:57:39;22.80;96.90
17437;DHT22;8836;52.272;5.134;2022-07-29T09:00:08;22.90;96.90
17437;DHT22;8836;52.272;5.134;2022-07-29T09:02:40;22.80;97.20
17437;DHT22;8836;52.272;5.134;2022-07-29T09:05:10;22.80;97.50
17437;DHT22;8836;52.272;5.134;2022-07-29T09:07:39;22.80;97.40
17437;DHT22;8836;52.272;5.134;2022-07-29T09:10:09;22.90;97.30
17437;DHT22;8836;52.272;5.134;2022-07-29T09:12:36;22.90;97.30
17437;DHT22;8836;52.272;5.134;2022-07-29T09:15:05;22.90;97.40
17437;DHT22;8836;52.272;5.134;2022-07-29T09:17:42;23.00;97.30
17437;DHT22;8836;52.272;5.134;2022-07-29T09:20:12;22.90;97.60
17437;DHT22;8836;52.272;5.134;2022-07-29T09:22:41;22.80;97.30
17437;DHT22;8836;52.272;5.134;2022-07-29T09:25:07;22.70;97.20
17437;DHT22;8836;52.272;5.134;2022-07-29T09:27:35;22.90;97.10
17437;DHT22;8836;52.272;5.134;2022-07-29T09:30:05;22.90;97.20
17437;DHT22;8836;52.272;5.134;2022-07-29T09:32:54;23.00;97.30
17437;DHT22;8836;52.272;5.134;2022-07-29T09:35:25;23.60;98.00
17437;DHT22;8836;52.272;5.134;2022-07-29T09:37:53;22.90;97.70
17437;DHT22;8836;52.272;5.134;2022-07-29T09:40:23;23.00;97.40
17437;DHT22;8836;52.272;5.134;2022-07-29T09:42:51;24.10;97.80
17437;DHT22;8836;52.272;5.134;2022-07-29T09:45:29;23.10;97.10
17437;DHT22;8836;52.272;5.134;2022-07-29T09:47:57;23.00;96.70
17437;DHT22;8836;52.272;5.134;2022-07-29T09:50:36;22.80;96.70
17437;DHT22;8836;52.272;5.134;2022-07-29T09:53:04;22.90;97.00
17437;DHT22;8836;52.272;5.134;2022-07-29T09:55:31;22.80;97.10
17437;DHT22;8836;52.272;5.134;2022-07-29T09:58:16;22.90;97.30
17437;DHT22;8836;52.272;5.134;2022-07-29T10:00:46;22.90;97.30
17437;DHT22;8836;52.272;5.134;2022-07-29T10:03:15;22.90;97.50
17437;DHT22;8836;52.272;5.134;2022-07-29T10:05:44;22.90;97.80
17437;DHT22;8836;52.272;5.134;2022-07-29T10:08:12;22.90;97.50
17437;DHT22;8836;52.272;5.134;2022-07-29T10:10:41;22.80;97.30
17437;DHT22;8836;52.272;5.134;2022-07-29T10:13:10;22.70;97.30
17437;DHT22;8836;52.272;5.134;2022-07-29T10:15:42;22.70;97.40
17437;DHT22;8836;52.272;5.134;2022-07-29T10:18:14;22.70;97.50
17437;DHT22;8836;52.272;5.134;2022-07-29T10:20:42;22.80;97.50
17437;DHT22;8836;52.272;5.134;2022-07-29T10:23:09;22.70;97.40
17437;DHT22;8836;52.272;5.134;2022-07-29T10:25:36;22.90;97.80
17437;DHT22;8836;52.272;5.134;2022-07-29T10:28:05;22.80;97.50
17437;DHT22;8836;52.272;5.134;2022-07-29T10:30:33;22.90;98.30
17437;DHT22;8836;52.272;5.134;2022-07-29T10:33:21;22.80;98.30
17437;DHT22;8836;52.272;5.134;2022-07-29T10:36:09;22.80;98.50
17437;DHT22;8836;52.272;5.134;2022-07-29T10:38:53;22.80;98.50
17437;DHT22;8836;52.272;5.134;2022-07-29T10:41:39;22.90;98.30
17437;DHT22;8836;52.272;5.134;2022-07-29T10:44:21;23.10;98.00
17437;DHT22;8836;52.272;5.134;2022-07-29T10:46:49;23.20;97.80
17437;DHT22;8836;52.272;5.134;2022-07-29T10:49:20;24.30;98.30
17437;DHT22;8836;52.272;5.134;2022-07-29T10:52:05;23.30;97.90
17437;DHT22;8836;52.272;5.134;2022-07-29T10:54:42;23.30;97.90
17437;DHT22;8836;52.272;5.134;2022-07-29T10:57:20;23.50;98.00
17437;DHT22;8836;52.272;5.134;2022-07-29T11:00:25;23.30;98.00
17437;DHT22;8836;52.272;5.134;2022-07-29T11:02:53;23.20;97.90
17437;DHT22;8836;52.272;5.134;2022-07-29T11:05:24;23.30;97.80
17437;DHT22;8836;52.272;5.134;2022-07-29T11:08:20;23.40;97.60
17437;DHT22;8836;52.272;5.134;2022-07-29T11:10:52;23.50;98.30
17437;DHT22;8836;52.272;5.134;2022-07-29T11:13:47;23.50;98.10
17437;DHT22;8836;52.272;5.134;2022-07-29T11:16:17;23.50;98.10
17437;DHT22;8836;52.272;5.134;2022-07-29T11:21:55;23.50;97.80
17437;DHT22;8836;52.272;5.134;2022-07-29T11:24:24;23.50;97.80
17437;DHT22;8836;52.272;5.134;2022-07-29T11:27:11;23.50;97.70
17437;DHT22;8836;52.272;5.134;2022-07-29T11:29:52;23.70;97.60
17437;DHT22;8836;52.272;5.134;2022-07-29T11:32:23;23.60;97.50
17437;DHT22;8836;52.272;5.134;2022-07-29T11:35:10;23.60;97.50
17437;DHT22;8836;52.272;5.134;2022-07-29T11:37:41;23.60;97.50
17437;DHT22;8836;52.272;5.134;2022-07-29T11:40:10;23.60;97.40
17437;DHT22;8836;52.272;5.134;2022-07-29T11:42:42;23.70;97.50
17437;DHT22;8836;52.272;5.134;2022-07-29T11:45:14;23.70;97.60
17437;DHT22;8836;52.272;5.134;2022-07-29T11:47:48;23.70;97.60
17437;DHT22;8836;52.272;5.134;2022-07-29T11:50:30;24.40;98.30
17437;DHT22;8836;52.272;5.134;2022-07-29T11:53:10;23.80;98.20
17437;DHT22;8836;52.272;5.134;2022-07-29T11:55:38;23.80;97.80
17437;DHT22;8836;52.272;5.134;2022-07-29T14:01:26;25.10;97.50
17437;DHT22;8836;52.272;5.134;2022-07-29T14:03:53;24.80;97.50
17437;DHT22;8836;52.272;5.134;2022-07-29T14:06:20;24.70;97.50
17437;DHT22;8836;52.272;5.134;2022-07-29T14:08:47;24.70;97.60
17437;DHT22;8836;52.272;5.134;2022-07-29T14:11:17;24.70;97.50
17437;DHT22;8836;52.272;5.134;2022-07-29T14:13:44;24.80;97.80
17437;DHT22;8836;52.272;5.134;2022-07-29T14:16:11;24.80;97.70
17437;DHT22;8836;52.272;5.134;2022-07-29T14:18:40;24.80;97.70
17437;DHT22;8836;52.272;5.134;2022-07-29T14:21:07;24.90;97.60
17437;DHT22;8836;52.272;5.134;2022-07-29T14:23:35;24.60;97.50
17437;DHT22;8836;52.272;5.134;2022-07-29T14:26:03;24.80;97.80
17437;DHT22;8836;52.272;5.134;2022-07-29T14:28:30;24.80;97.70
17437;DHT22;8836;52.272;5.134;2022-07-29T14:30:57;24.90;97.80
17437;DHT22;8836;52.272;5.134;2022-07-29T14:33:24;24.90;97.70
17437;DHT22;8836;52.272;5.134;2022-07-29T14:35:52;24.90;97.70
17437;DHT22;8836;52.272;5.134;2022-07-29T14:38:19;25.00;97.30
17437;DHT22;8836;52.272;5.134;2022-07-29T14:40:46;25.00;97.50
17437;DHT22;8836;52.272;5.134;2022-07-29T14:43:16;25.00;97.30
17437;DHT22;8836;52.272;5.134;2022-07-29T14:45:45;25.00;97.50
17437;DHT22;8836;52.272;5.134;2022-07-29T14:48:12;25.10;97.60
17437;DHT22;8836;52.272;5.134;2022-07-29T14:50:41;25.00;97.50
17437;DHT22;8836;52.272;5.134;2022-07-29T14:53:09;25.00;97.90
17437;DHT22;8836;52.272;5.134;2022-07-29T14:55:37;25.00;97.60
17437;DHT22;8836;52.272;5.134;2022-07-29T14:58:07;25.00;97.60
17437;DHT22;8836;52.272;5.134;2022-07-29T15:00:34;25.10;97.60
17437;DHT22;8836;52.272;5.134;2022-07-29T15:03:04;25.10;97.50
17437;DHT22;8836;52.272;5.134;2022-07-29T15:05:32;25.10;97.20
17437;DHT22;8836;52.272;5.134;2022-07-29T15:08:04;25.20;97.10
17437;DHT22;8836;52.272;5.134;2022-07-29T15:10:35;25.20;96.80
17437;DHT22;8836;52.272;5.134;2022-07-29T15:13:03;25.30;96.70
17437;DHT22;8836;52.272;5.134;2022-07-29T15:15:30;25.30;96.60
17437;DHT22;8836;52.272;5.134;2022-07-29T15:17:57;25.30;96.40
17437;DHT22;8836;52.272;5.134;2022-07-29T15:20:24;25.30;96.00
17437;DHT22;8836;52.272;5.134;2022-07-29T15:22:52;25.30;95.60
17437;DHT22;8836;52.272;5.134;2022-07-29T15:25:21;25.70;95.80
17437;DHT22;8836;52.272;5.134;2022-07-29T15:27:49;25.30;95.40
17437;DHT22;8836;52.272;5.134;2022-07-29T15:30:16;25.30;95.40
17437;DHT22;8836;52.272;5.134;2022-07-29T15:32:44;25.40;95.10
17437;DHT22;8836;52.272;5.134;2022-07-29T15:35:11;27.00;95.70
17437;DHT22;8836;52.272;5.134;2022-07-29T15:37:38;25.30;94.90
17437;DHT22;8836;52.272;5.134;2022-07-29T15:40:07;25.30;95.10
17437;DHT22;8836;52.272;5.134;2022-07-29T15:42:35;25.30;95.00
17437;DHT22;8836;52.272;5.134;2022-07-29T15:45:04;25.20;95.00
17437;DHT22;8836;52.272;5.134;2022-07-29T15:47:32;25.30;95.20
17437;DHT22;8836;52.272;5.134;2022-07-29T15:50:01;25.40;95.20
17437;DHT22;8836;52.272;5.134;2022-07-29T15:52:29;25.30;95.00
17437;DHT22;8836;52.272;5.134;2022-07-29T15:54:56;25.20;94.70
17437;DHT22;8836;52.272;5.134;2022-07-29T15:57:24;25.20;95.10
17437;DHT22;8836;52.272;5.134;2022-07-29T15:59:51;25.20;94.80
17437;DHT22;8836;52.272;5.134;2022-07-29T16:02:20;25.30;94.90
17437;DHT22;8836;52.272;5.134;2022-07-29T16:04:51;25.20;94.40
17437;DHT22;8836;52.272;5.134;2022-07-29T16:07:18;25.20;94.50
17437;DHT22;8836;52.272;5.134;2022-07-29T16:09:45;25.20;94.30
17437;DHT22;8836;52.272;5.134;2022-07-29T16:12:12;25.40;94.30
17437;DHT22;8836;52.272;5.134;2022-07-29T16:14:41;25.30;94.40
17437;DHT22;8836;52.272;5.134;2022-07-29T16:17:09;25.30;94.00
17437;DHT22;8836;52.272;5.134;2022-07-29T16:19:38;25.30;93.80
17437;DHT22;8836;52.272;5.134;2022-07-29T16:22:05;25.30;94.10
17437;DHT22;8836;52.272;5.134;2022-07-29T16:24:32;25.40;94.10
17437;DHT22;8836;52.272;5.134;2022-07-29T16:26:59;25.40;93.90
17437;DHT22;8836;52.272;5.134;2022-07-29T16:29:26;25.50;93.90
17437;DHT22;8836;52.272;5.134;2022-07-29T16:31:54;25.50;93.80
17437;DHT22;8836;52.272;5.134;2022-07-29T16:34:21;25.50;93.70
17437;DHT22;8836;52.272;5.134;2022-07-29T16:36:50;25.50;93.90
17437;DHT22;8836;52.272;5.134;2022-07-29T16:39:17;25.50;93.50
17437;DHT22;8836;52.272;5.134;2022-07-29T16:41:44;25.40;93.40
17437;DHT22;8836;52.272;5.134;2022-07-29T16:44:11;25.30;93.50
17437;DHT22;8836;52.272;5.134;2022-07-29T16:46:38;25.30;93.70
17437;DHT22;8836;52.272;5.134;2022-07-29T16:49:11;25.30;93.80
17437;DHT22;8836;52.272;5.134;2022-07-29T16:51:38;25.40;93.80
17437;DHT22;8836;52.272;5.134;2022-07-29T16:54:06;25.40;93.80
17437;DHT22;8836;52.272;5.134;2022-07-29T16:56:35;25.50;93.80
17437;DHT22;8836;52.272;5.134;2022-07-29T16:59:03;25.50;93.90
17437;DHT22;8836;52.272;5.134;2022-07-29T17:01:30;25.50;93.70
17437;DHT22;8836;52.272;5.134;2022-07-29T17:03:57;25.50;93.80
17437;DHT22;8836;52.272;5.134;2022-07-29T17:06:33;25.60;93.80
17437;DHT22;8836;52.272;5.134;2022-07-29T17:09:02;25.60;93.70
17437;DHT22;8836;52.272;5.134;2022-07-29T17:11:32;25.70;93.50
17437;DHT22;8836;52.272;5.134;2022-07-29T17:14:00;25.70;93.30
17437;DHT22;8836;52.272;5.134;2022-07-29T17:16:27;25.60;93.50
17437;DHT22;8836;52.272;5.134;2022-07-29T17:18:55;25.70;93.40
17437;DHT22;8836;52.272;5.134;2022-07-29T17:21:24;25.70;93.40
17437;DHT22;8836;52.272;5.134;2022-07-29T17:23:52;25.70;93.60
17437;DHT22;8836;52.272;5.134;2022-07-29T17:26:19;25.70;93.40
17437;DHT22;8836;52.272;5.134;2022-07-29T17:28:51;25.70;93.30
17437;DHT22;8836;52.272;5.134;2022-07-29T17:31:18;25.70;93.40
17437;DHT22;8836;52.272;5.134;2022-07-29T17:33:45;25.70;93.50
17437;DHT22;8836;52.272;5.134;2022-07-29T17:36:12;25.70;93.50
17437;DHT22;8836;52.272;5.134;2022-07-29T17:38:54;25.80;93.60
17437;DHT22;8836;52.272;5.134;2022-07-29T17:41:22;25.80;93.70
17437;DHT22;8836;52.272;5.134;2022-07-29T17:43:52;25.90;93.70
17437;DHT22;8836;52.272;5.134;2022-07-29T17:46:20;25.80;93.70
17437;DHT22;8836;52.272;5.134;2022-07-29T17:48:49;25.80;93.80
17437;DHT22;8836;52.272;5.134;2022-07-29T17:51:16;25.70;93.90
17437;DHT22;8836;52.272;5.134;2022-07-29T17:53:46;25.80;94.00
17437;DHT22;8836;52.272;5.134;2022-07-29T17:56:13;25.90;94.40
17437;DHT22;8836;52.272;5.134;2022-07-29T17:58:46;25.80;94.30
17437;DHT22;8836;52.272;5.134;2022-07-29T18:01:15;25.70;94.50
17437;DHT22;8836;52.272;5.134;2022-07-29T18:03:42;25.70;94.70
17437;DHT22;8836;52.272;5.134;2022-07-29T18:06:10;25.60;94.80